»·PEaware :: N6104X KBFL-KMCE

N6104X :: KBFL-KMCE

FLIGHT INFORMATION

Flight Status: Arrived
Operator: Privately registered:
United States
More flights under this callsign
Pilot: Armando C. (16967)
Aircraft: CESSNA 310
(C310)
More flights by this aircraft type
Origin: KBFL Meadows
United States
Destination: KMCE Merced Mun/Macready
United States
More flights between these airports :: More routes between these airports
Route: +EHF V23 BEREN
File this flight plan on PilotEdge
Remarks:
Altitude:
(Current/Filed)
6,000ft
Speed:
(Current/Filed)
180kts
Departed: 08-Dec-18 01:39 PM
Arrived: 08-Dec-18 02:50 PM
Distance/Time
Traveled:
132nm/1:10
Distance/Time
To Go:
Arrived

Flight Plot

Page will automatically refresh every two minutes.

Flight plan parsing failed; only flown route is shown


Map Options




Map Legend


Flown Route
Filed Route
Departure Airport
Arrival Airport
Navaid (VOR, NDB)
Fix

Horizontal Profiles

Position Reports

Time Latitude Longitude Heading Altitude Ground
Speed
08-Dec-18 13:07 35.429375 -119.046096 226 494ft 0kts
08-Dec-18 13:08 35.429375 -119.046096 226 494ft 0kts
08-Dec-18 13:09 35.429375 -119.046096 226 494ft 0kts
08-Dec-18 13:10 35.429375 -119.046096 226 494ft 0kts
08-Dec-18 13:11 35.429375 -119.046096 226 494ft 0kts
08-Dec-18 13:12 35.429375 -119.046096 226 494ft 0kts
08-Dec-18 13:13 35.429375 -119.046096 226 494ft 0kts
08-Dec-18 13:14 35.429375 -119.046096 226 494ft 0kts
08-Dec-18 13:15 35.429375 -119.046096 226 494ft 0kts
08-Dec-18 13:16 35.429375 -119.046096 226 494ft 0kts
08-Dec-18 13:17 35.429375 -119.046096 226 494ft 0kts
08-Dec-18 13:18 35.429375 -119.046096 226 494ft 0kts
08-Dec-18 13:19 35.429375 -119.046096 226 494ft 0kts
08-Dec-18 13:21 35.429375 -119.046096 226 494ft 0kts
08-Dec-18 13:22 35.429375 -119.046096 226 494ft 0kts
08-Dec-18 13:23 35.429375 -119.046096 226 494ft 0kts
08-Dec-18 13:24 35.429375 -119.046096 226 494ft 0kts
08-Dec-18 13:25 35.429375 -119.046096 226 494ft 0kts
08-Dec-18 13:26 35.429375 -119.046096 226 494ft 0kts
08-Dec-18 13:27 35.429375 -119.046096 226 494ft 0kts
08-Dec-18 13:28 35.429375 -119.046096 226 494ft 0kts
08-Dec-18 13:29 35.429375 -119.046096 225 494ft 0kts
08-Dec-18 13:30 35.429375 -119.046096 226 494ft 0kts
08-Dec-18 13:31 35.429375 -119.046096 226 494ft 0kts
08-Dec-18 13:32 35.429375 -119.046096 226 494ft 0kts
08-Dec-18 13:33 35.428655 -119.046998 217 490ft 11kts
08-Dec-18 13:34 35.425882 -119.044500 150 480ft 15kts
08-Dec-18 13:35 35.425276 -119.044290 253 478ft 0kts
08-Dec-18 13:36 35.425276 -119.044290 253 478ft 0kts
08-Dec-18 13:37 35.425276 -119.044290 253 478ft 0kts
08-Dec-18 13:38 35.425257 -119.044507 278 478ft 1kts
08-Dec-18 13:39 35.430197 -119.051868 314 537ft 106kts
08-Dec-18 13:40 35.453079 -119.079042 316 2409ft 117kts
08-Dec-18 13:41 35.478662 -119.109335 315 3036ft 163kts
08-Dec-18 13:41 35.503885 -119.140894 313 3055ft 180kts
08-Dec-18 13:43 35.540651 -119.181265 343 3506ft 168kts
08-Dec-18 13:43 35.564716 -119.183323 357 4025ft 162kts
08-Dec-18 13:44 35.595813 -119.186615 356 4616ft 162kts
08-Dec-18 13:45 35.629286 -119.189134 356 5366ft 160kts
08-Dec-18 13:46 35.662032 -119.193151 333 5996ft 165kts
08-Dec-18 13:47 35.694204 -119.201813 347 6043ft 184kts
08-Dec-18 13:48 35.726081 -119.220150 335 6029ft 189kts
08-Dec-18 13:49 35.756697 -119.236690 336 6035ft 176kts
08-Dec-18 13:50 35.787437 -119.252204 337 6034ft 172kts
08-Dec-18 13:51 35.816065 -119.266651 337 6034ft 171kts
08-Dec-18 13:52 35.841037 -119.279271 337 6021ft 171kts
08-Dec-18 13:53 35.865959 -119.291981 336 6031ft 171kts
08-Dec-18 13:54 35.891648 -119.305779 335 6026ft 171kts
08-Dec-18 13:55 35.918774 -119.320466 336 6029ft 171kts
08-Dec-18 13:56 35.948522 -119.336043 336 6030ft 170kts
08-Dec-18 13:57 35.979183 -119.351879 336 6031ft 170kts
08-Dec-18 13:58 36.010306 -119.367877 336 6031ft 170kts
08-Dec-18 13:59 36.039097 -119.384108 331 6030ft 170kts
08-Dec-18 14:00 36.066801 -119.402711 336 6040ft 170kts
08-Dec-18 14:01 36.095563 -119.418180 335 6038ft 170kts
08-Dec-18 14:02 36.123741 -119.434004 336 6034ft 171kts
08-Dec-18 14:03 36.152692 -119.449521 337 6031ft 171kts
08-Dec-18 14:04 36.182141 -119.464827 337 6029ft 172kts
08-Dec-18 14:05 36.212078 -119.480113 337 6028ft 172kts
08-Dec-18 14:06 36.241350 -119.494908 337 6017ft 172kts
08-Dec-18 14:07 36.270040 -119.509335 337 6015ft 172kts
08-Dec-18 14:08 36.298657 -119.523684 337 6016ft 172kts
08-Dec-18 14:09 36.327252 -119.538000 338 6018ft 172kts
08-Dec-18 14:10 36.356758 -119.552765 338 6018ft 172kts
08-Dec-18 14:11 36.385513 -119.567155 338 6018ft 172kts
08-Dec-18 14:12 36.413190 -119.581008 338 6018ft 172kts
08-Dec-18 14:13 36.440206 -119.594539 338 6017ft 172kts
08-Dec-18 14:14 36.467338 -119.608136 338 6018ft 172kts
08-Dec-18 14:15 36.494764 -119.621888 338 6017ft 172kts
08-Dec-18 14:16 36.521103 -119.635105 338 6015ft 172kts
08-Dec-18 14:17 36.547085 -119.648151 338 6014ft 172kts
08-Dec-18 14:18 36.571851 -119.660673 337 6012ft 172kts
08-Dec-18 14:19 36.595662 -119.672710 337 6010ft 172kts
08-Dec-18 14:20 36.623742 -119.686889 337 6007ft 172kts
08-Dec-18 14:21 36.653754 -119.702035 337 6005ft 172kts
08-Dec-18 14:22 36.682334 -119.716457 337 6006ft 172kts
08-Dec-18 14:23 36.707392 -119.729107 337 6008ft 172kts
08-Dec-18 14:24 36.733344 -119.742217 337 6005ft 172kts
08-Dec-18 14:25 36.758716 -119.755040 337 6016ft 171kts
08-Dec-18 14:26 36.784752 -119.768209 337 6013ft 173kts
08-Dec-18 14:27 36.812242 -119.782049 337 6022ft 180kts
08-Dec-18 14:28 36.842045 -119.797009 337 6017ft 182kts
08-Dec-18 14:29 36.872686 -119.812810 327 5999ft 183kts
08-Dec-18 14:30 36.889874 -119.848288 298 6013ft 183kts
08-Dec-18 14:31 36.906040 -119.886629 298 5655ft 187kts
08-Dec-18 14:32 36.922415 -119.924893 298 5319ft 187kts
08-Dec-18 14:33 36.939534 -119.964822 297 4969ft 186kts
08-Dec-18 14:34 36.960113 -120.012059 298 4551ft 185kts
08-Dec-18 14:35 36.979720 -120.056647 298 4155ft 184kts
08-Dec-18 14:36 37.000584 -120.104175 298 3582ft 188kts
08-Dec-18 14:37 37.024460 -120.158617 298 2904ft 183kts
08-Dec-18 14:38 37.048553 -120.213660 298 2198ft 179kts
08-Dec-18 14:39 37.071311 -120.265657 298 2015ft 161kts
08-Dec-18 14:40 37.097184 -120.309351 320 2022ft 157kts
08-Dec-18 14:41 37.130359 -120.344378 318 2008ft 157kts
08-Dec-18 14:42 37.161262 -120.377989 318 2043ft 132kts
08-Dec-18 14:43 37.185519 -120.404627 317 2001ft 117kts
08-Dec-18 14:44 37.204477 -120.425476 317 2001ft 117kts
08-Dec-18 14:45 37.221456 -120.444119 318 1675ft 119kts
08-Dec-18 14:46 37.238612 -120.462275 316 1211ft 107kts
08-Dec-18 14:47 37.257905 -120.484604 316 776ft 106kts
08-Dec-18 14:48 37.279993 -120.508670 316 166ft 87kts
08-Dec-18 14:49 37.285642 -120.513658 6 154ft 0kts
08-Dec-18 14:50 37.288393 -120.516322 339 155ft 15kts
08-Dec-18 14:51 37.288693 -120.516149 57 154ft 0kts
08-Dec-18 14:52 37.288693 -120.516149 57 154ft 0kts
08-Dec-18 14:53 37.288693 -120.516149 57 154ft 0kts
08-Dec-18 14:54 37.288693 -120.516149 57 154ft 0kts
08-Dec-18 14:55 37.288693 -120.516149 57 154ft 0kts
08-Dec-18 14:56 37.288693 -120.516149 57 154ft 0kts
08-Dec-18 14:57 37.288693 -120.516149 57 154ft 0kts
08-Dec-18 14:58 37.288693 -120.516149 57 154ft 0kts
08-Dec-18 14:59 37.288693 -120.516149 57 154ft 0kts
08-Dec-18 15:00 37.288693 -120.516149 57 154ft 0kts
08-Dec-18 15:01 37.288693 -120.516149 57 154ft 0kts
08-Dec-18 15:02 37.288693 -120.516149 57 154ft 0kts
08-Dec-18 15:03 37.288693 -120.516149 57 154ft 0kts

Navigation Log

Ident Type
Flight plan parsing failed, navigation log unavailable